sensor_id;sensor_type;location;lat;lon;timestamp;pressure;altitude;pressure_sealevel;temperature;humidity
78309;BME280;67566;42.022;21.356;2023-07-20T00:01:12;98113.56;;;26.69;49.75
78309;BME280;67566;42.022;21.356;2023-07-20T00:03:38;98113.38;;;26.56;50.22
78309;BME280;67566;42.022;21.356;2023-07-20T00:06:04;98109.31;;;26.44;50.17
78309;BME280;67566;42.022;21.356;2023-07-20T00:08:29;98102.50;;;26.32;50.96
78309;BME280;67566;42.022;21.356;2023-07-20T00:10:55;98117.28;;;26.35;50.22
78309;BME280;67566;42.022;21.356;2023-07-20T00:13:21;98118.91;;;26.32;51.23
78309;BME280;67566;42.022;21.356;2023-07-20T00:15:47;98110.00;;;26.28;51.15
78309;BME280;67566;42.022;21.356;2023-07-20T00:18:13;98108.81;;;26.29;50.54
78309;BME280;67566;42.022;21.356;2023-07-20T00:20:39;98110.84;;;26.25;50.55
78309;BME280;67566;42.022;21.356;2023-07-20T00:23:05;98124.06;;;26.27;51.16
78309;BME280;67566;42.022;21.356;2023-07-20T00:25:32;98122.03;;;26.31;50.48
78309;BME280;67566;42.022;21.356;2023-07-20T00:27:58;98118.13;;;26.32;50.63
78309;BME280;67566;42.022;21.356;2023-07-20T00:30:24;98114.19;;;26.33;50.99
78309;BME280;67566;42.022;21.356;2023-07-20T00:32:49;98114.06;;;26.20;50.61
78309;BME280;67566;42.022;21.356;2023-07-20T00:35:15;98114.53;;;26.15;50.63
78309;BME280;67566;42.022;21.356;2023-07-20T00:37:40;98110.44;;;26.03;50.57
78309;BME280;67566;42.022;21.356;2023-07-20T00:40:06;98119.88;;;25.98;51.24
78309;BME280;67566;42.022;21.356;2023-07-20T00:42:33;98112.13;;;25.97;51.28
78309;BME280;67566;42.022;21.356;2023-07-20T00:44:58;98116.03;;;25.96;50.61
78309;BME280;67566;42.022;21.356;2023-07-20T00:47:24;98120.34;;;25.93;50.79
78309;BME280;67566;42.022;21.356;2023-07-20T00:49:51;98118.75;;;25.96;51.18
78309;BME280;67566;42.022;21.356;2023-07-20T00:52:19;98114.84;;;25.97;50.76
78309;BME280;67566;42.022;21.356;2023-07-20T00:54:46;98120.25;;;26.00;51.24
78309;BME280;67566;42.022;21.356;2023-07-20T00:57:14;98121.00;;;26.01;50.90
78309;BME280;67566;42.022;21.356;2023-07-20T00:59:40;98114.38;;;26.02;51.18
78309;BME280;67566;42.022;21.356;2023-07-20T01:02:06;98113.50;;;26.05;50.61
78309;BME280;67566;42.022;21.356;2023-07-20T01:04:32;98107.59;;;26.10;51.09
78309;BME280;67566;42.022;21.356;2023-07-20T01:12:29;98115.28;;;26.15;51.12
78309;BME280;67566;42.022;21.356;2023-07-20T01:14:55;98109.47;;;26.13;51.21
78309;BME280;67566;42.022;21.356;2023-07-20T01:17:21;98107.09;;;26.15;51.33
78309;BME280;67566;42.022;21.356;2023-07-20T01:19:48;98102.78;;;26.18;51.15
78309;BME280;67566;42.022;21.356;2023-07-20T01:31:20;98065.28;;;26.22;51.11
78309;BME280;67566;42.022;21.356;2023-07-20T01:33:46;98063.03;;;26.17;51.36
78309;BME280;67566;42.022;21.356;2023-07-20T01:36:14;98067.44;;;26.11;51.39
78309;BME280;67566;42.022;21.356;2023-07-20T01:38:41;98060.50;;;26.06;50.91
78309;BME280;67566;42.022;21.356;2023-07-20T01:41:08;98075.03;;;25.99;51.44
78309;BME280;67566;42.022;21.356;2023-07-20T01:43:34;98079.03;;;25.95;51.45
78309;BME280;67566;42.022;21.356;2023-07-20T01:45:59;98070.88;;;25.68;52.16
78309;BME280;67566;42.022;21.356;2023-07-20T01:48:25;98080.47;;;25.52;53.25
78309;BME280;67566;42.022;21.356;2023-07-20T01:50:50;98078.03;;;25.34;53.65
78309;BME280;67566;42.022;21.356;2023-07-20T01:53:17;98075.44;;;25.23;53.98
78309;BME280;67566;42.022;21.356;2023-07-20T01:55:42;98076.72;;;25.15;54.03
78309;BME280;67566;42.022;21.356;2023-07-20T01:58:08;98077.16;;;25.10;53.92
78309;BME280;67566;42.022;21.356;2023-07-20T02:00:34;98081.13;;;25.05;53.77
78309;BME280;67566;42.022;21.356;2023-07-20T02:02:59;98082.31;;;25.04;54.11
78309;BME280;67566;42.022;21.356;2023-07-20T02:05:25;98079.94;;;25.06;54.60
78309;BME280;67566;42.022;21.356;2023-07-20T02:07:50;98074.50;;;25.06;53.95
78309;BME280;67566;42.022;21.356;2023-07-20T02:10:16;98080.31;;;25.09;54.68
78309;BME280;67566;42.022;21.356;2023-07-20T02:12:42;98076.47;;;25.06;54.72
78309;BME280;67566;42.022;21.356;2023-07-20T02:15:08;98081.13;;;25.05;54.53
78309;BME280;67566;42.022;21.356;2023-07-20T02:17:33;98089.69;;;25.04;54.02
78309;BME280;67566;42.022;21.356;2023-07-20T02:19:59;98083.19;;;24.98;55.00
78309;BME280;67566;42.022;21.356;2023-07-20T02:22:24;98087.47;;;24.95;54.75
78309;BME280;67566;42.022;21.356;2023-07-20T02:24:50;98090.69;;;24.90;55.11
78309;BME280;67566;42.022;21.356;2023-07-20T02:27:16;98090.28;;;24.88;54.65
78309;BME280;67566;42.022;21.356;2023-07-20T02:29:42;98099.31;;;24.85;54.60
78309;BME280;67566;42.022;21.356;2023-07-20T02:32:08;98091.53;;;24.83;55.03
78309;BME280;67566;42.022;21.356;2023-07-20T02:34:35;98093.06;;;24.84;55.07
78309;BME280;67566;42.022;21.356;2023-07-20T02:37:01;98098.16;;;24.82;55.14
78309;BME280;67566;42.022;21.356;2023-07-20T02:39:27;98091.19;;;24.81;55.76
78309;BME280;67566;42.022;21.356;2023-07-20T02:41:53;98073.28;;;24.80;55.15
78309;BME280;67566;42.022;21.356;2023-07-20T02:44:19;98087.66;;;24.81;55.15
78309;BME280;67566;42.022;21.356;2023-07-20T02:46:44;98082.22;;;24.81;55.40
78309;BME280;67566;42.022;21.356;2023-07-20T02:49:10;98082.56;;;24.83;56.04
78309;BME280;67566;42.022;21.356;2023-07-20T02:51:35;98089.22;;;24.82;56.25
78309;BME280;67566;42.022;21.356;2023-07-20T02:54:01;98091.94;;;24.82;56.01
78309;BME280;67566;42.022;21.356;2023-07-20T02:56:26;98087.66;;;24.81;56.51
78309;BME280;67566;42.022;21.356;2023-07-20T02:58:52;98087.31;;;24.79;56.02
78309;BME280;67566;42.022;21.356;2023-07-20T03:01:18;98088.91;;;24.76;56.25
78309;BME280;67566;42.022;21.356;2023-07-20T03:03:43;98092.78;;;24.75;56.59
78309;BME280;67566;42.022;21.356;2023-07-20T03:06:15;98092.84;;;24.72;56.76
78309;BME280;67566;42.022;21.356;2023-07-20T03:08:41;98096.00;;;24.66;57.14
78309;BME280;67566;42.022;21.356;2023-07-20T03:11:10;98106.13;;;24.66;56.55
78309;BME280;67566;42.022;21.356;2023-07-20T03:13:36;98103.50;;;24.59;57.08
78309;BME280;67566;42.022;21.356;2023-07-20T03:16:01;98101.25;;;24.50;57.58
78309;BME280;67566;42.022;21.356;2023-07-20T03:18:27;98095.84;;;24.46;57.94
78309;BME280;67566;42.022;21.356;2023-07-20T03:20:52;98091.97;;;24.44;57.68
78309;BME280;67566;42.022;21.356;2023-07-20T03:23:18;98091.56;;;24.45;58.51
78309;BME280;67566;42.022;21.356;2023-07-20T03:25:43;98093.13;;;24.46;58.41
78309;BME280;67566;42.022;21.356;2023-07-20T03:28:09;98095.44;;;24.44;58.45
78309;BME280;67566;42.022;21.356;2023-07-20T03:30:34;98090.44;;;24.43;58.05
78309;BME280;67566;42.022;21.356;2023-07-20T03:33:00;98112.28;;;24.32;58.45
78309;BME280;67566;42.022;21.356;2023-07-20T03:35:25;98111.94;;;24.30;58.56
78309;BME280;67566;42.022;21.356;2023-07-20T03:37:52;98108.94;;;24.21;58.47
78309;BME280;67566;42.022;21.356;2023-07-20T03:40:17;98107.53;;;24.02;58.67
78309;BME280;67566;42.022;21.356;2023-07-20T03:42:43;98107.25;;;23.92;58.83
78309;BME280;67566;42.022;21.356;2023-07-20T03:45:08;98107.59;;;23.94;59.30
78309;BME280;67566;42.022;21.356;2023-07-20T03:47:34;98098.66;;;23.98;58.90
78309;BME280;67566;42.022;21.356;2023-07-20T03:50:00;98092.81;;;23.96;59.24
78309;BME280;67566;42.022;21.356;2023-07-20T03:52:25;98111.47;;;23.97;58.94
78309;BME280;67566;42.022;21.356;2023-07-20T03:54:51;98107.97;;;23.97;58.75
78309;BME280;67566;42.022;21.356;2023-07-20T03:57:17;98094.34;;;24.00;58.95
78309;BME280;67566;42.022;21.356;2023-07-20T03:59:45;98099.34;;;24.05;59.26
78309;BME280;67566;42.022;21.356;2023-07-20T04:02:11;98097.00;;;24.07;59.35
78309;BME280;67566;42.022;21.356;2023-07-20T04:04:37;98104.31;;;24.14;59.20
78309;BME280;67566;42.022;21.356;2023-07-20T04:07:02;98107.78;;;24.18;59.62
78309;BME280;67566;42.022;21.356;2023-07-20T04:09:28;98113.22;;;24.18;58.98
78309;BME280;67566;42.022;21.356;2023-07-20T04:11:53;98109.69;;;24.21;58.77
78309;BME280;67566;42.022;21.356;2023-07-20T04:14:19;98114.00;;;24.19;59.58
78309;BME280;67566;42.022;21.356;2023-07-20T04:16:46;98120.22;;;24.19;59.69
78309;BME280;67566;42.022;21.356;2023-07-20T04:19:12;98134.16;;;24.21;59.50
78309;BME280;67566;42.022;21.356;2023-07-20T04:21:41;98127.94;;;24.24;58.73
78309;BME280;67566;42.022;21.356;2023-07-20T04:24:07;98134.47;;;24.30;58.44
78309;BME280;67566;42.022;21.356;2023-07-20T04:26:32;98131.75;;;24.30;59.37
78309;BME280;67566;42.022;21.356;2023-07-20T04:28:58;98127.81;;;24.35;58.84
78309;BME280;67566;42.022;21.356;2023-07-20T04:31:24;98129.34;;;24.40;58.70
78309;BME280;67566;42.022;21.356;2023-07-20T04:33:50;98121.06;;;24.50;59.11
78309;BME280;67566;42.022;21.356;2023-07-20T04:36:16;98120.59;;;24.59;58.25
78309;BME280;67566;42.022;21.356;2023-07-20T04:38:45;98115.84;;;24.67;58.61
78309;BME280;67566;42.022;21.356;2023-07-20T04:41:11;98101.31;;;24.77;57.56
78309;BME280;67566;42.022;21.356;2023-07-20T04:43:43;98103.97;;;24.84;57.69
78309;BME280;67566;42.022;21.356;2023-07-20T04:46:11;98116.31;;;24.93;57.35
78309;BME280;67566;42.022;21.356;2023-07-20T04:48:37;98120.94;;;24.96;57.75
78309;BME280;67566;42.022;21.356;2023-07-20T04:51:03;98126.41;;;24.96;58.58
78309;BME280;67566;42.022;21.356;2023-07-20T04:53:28;98132.59;;;24.96;58.42
78309;BME280;67566;42.022;21.356;2023-07-20T04:55:54;98129.84;;;25.00;57.09
78309;BME280;67566;42.022;21.356;2023-07-20T04:58:20;98130.94;;;25.06;56.92
78309;BME280;67566;42.022;21.356;2023-07-20T05:00:47;98134.28;;;25.17;57.42
78309;BME280;67566;42.022;21.356;2023-07-20T05:03:13;98131.16;;;25.19;56.58
78309;BME280;67566;42.022;21.356;2023-07-20T05:05:38;98135.38;;;25.23;57.62
78309;BME280;67566;42.022;21.356;2023-07-20T05:08:04;98133.75;;;25.30;57.04
78309;BME280;67566;42.022;21.356;2023-07-20T05:10:30;98142.19;;;25.39;56.71
78309;BME280;67566;42.022;21.356;2023-07-20T05:12:55;98143.56;;;25.51;56.42
78309;BME280;67566;42.022;21.356;2023-07-20T05:15:21;98143.00;;;25.63;56.92
78309;BME280;67566;42.022;21.356;2023-07-20T05:17:46;98137.81;;;25.72;56.62
78309;BME280;67566;42.022;21.356;2023-07-20T05:20:14;98142.38;;;25.79;55.52
78309;BME280;67566;42.022;21.356;2023-07-20T05:22:40;98148.50;;;25.87;56.47
78309;BME280;67566;42.022;21.356;2023-07-20T05:25:09;98144.00;;;26.00;56.09
78309;BME280;67566;42.022;21.356;2023-07-20T05:27:39;98132.88;;;26.14;55.50
78309;BME280;67566;42.022;21.356;2023-07-20T05:30:05;98135.75;;;26.27;55.13
78309;BME280;67566;42.022;21.356;2023-07-20T05:32:32;98117.59;;;26.41;54.95
78309;BME280;67566;42.022;21.356;2023-07-20T05:34:58;98116.88;;;26.56;55.47
78309;BME280;67566;42.022;21.356;2023-07-20T05:37:24;98120.97;;;26.68;54.33
78309;BME280;67566;42.022;21.356;2023-07-20T05:39:50;98124.66;;;26.78;54.98
78309;BME280;67566;42.022;21.356;2023-07-20T05:42:16;98128.25;;;26.95;53.24
78309;BME280;67566;42.022;21.356;2023-07-20T05:44:42;98137.88;;;27.00;52.49
78309;BME280;67566;42.022;21.356;2023-07-20T05:47:08;98132.78;;;27.02;53.38
78309;BME280;67566;42.022;21.356;2023-07-20T05:49:34;98134.72;;;27.01;53.86
78309;BME280;67566;42.022;21.356;2023-07-20T05:52:00;98140.28;;;26.98;52.88
78309;BME280;67566;42.022;21.356;2023-07-20T05:54:26;98141.34;;;27.04;53.29
78309;BME280;67566;42.022;21.356;2023-07-20T05:56:52;98144.06;;;27.04;53.81
78309;BME280;67566;42.022;21.356;2023-07-20T05:59:18;98150.28;;;27.04;52.75
78309;BME280;67566;42.022;21.356;2023-07-20T06:01:49;98145.81;;;27.14;52.86
78309;BME280;67566;42.022;21.356;2023-07-20T06:04:15;98132.94;;;27.31;53.49
78309;BME280;67566;42.022;21.356;2023-07-20T06:06:40;98130.84;;;27.55;52.57
78309;BME280;67566;42.022;21.356;2023-07-20T06:09:06;98131.22;;;27.74;52.00
78309;BME280;67566;42.022;21.356;2023-07-20T06:11:35;98132.69;;;27.95;51.44
78309;BME280;67566;42.022;21.356;2023-07-20T06:14:01;98135.41;;;27.95;51.72
78309;BME280;67566;42.022;21.356;2023-07-20T06:16:27;98135.13;;;27.89;51.77
78309;BME280;67566;42.022;21.356;2023-07-20T06:18:52;98146.19;;;27.85;51.56
78309;BME280;67566;42.022;21.356;2023-07-20T06:21:18;98146.09;;;27.89;52.14
78309;BME280;67566;42.022;21.356;2023-07-20T06:23:43;98155.75;;;28.10;51.91
78309;BME280;67566;42.022;21.356;2023-07-20T06:26:09;98156.75;;;28.33;51.90
78309;BME280;67566;42.022;21.356;2023-07-20T06:28:34;98151.66;;;28.48;50.89
78309;BME280;67566;42.022;21.356;2023-07-20T06:31:00;98146.78;;;28.55;50.35
78309;BME280;67566;42.022;21.356;2023-07-20T06:33:26;98154.53;;;28.73;50.05
78309;BME280;67566;42.022;21.356;2023-07-20T06:35:52;98158.03;;;28.87;49.54
78309;BME280;67566;42.022;21.356;2023-07-20T06:38:18;98153.97;;;28.78;50.32
78309;BME280;67566;42.022;21.356;2023-07-20T06:40:46;98149.25;;;28.66;50.81
78309;BME280;67566;42.022;21.356;2023-07-20T06:43:12;98145.38;;;28.63;50.98
78309;BME280;67566;42.022;21.356;2023-07-20T06:45:37;98143.50;;;28.60;50.51
78309;BME280;67566;42.022;21.356;2023-07-20T06:48:03;98149.56;;;28.68;50.73
78309;BME280;67566;42.022;21.356;2023-07-20T06:50:29;98146.53;;;28.79;50.42
78309;BME280;67566;42.022;21.356;2023-07-20T06:52:54;98149.06;;;28.86;50.57
78309;BME280;67566;42.022;21.356;2023-07-20T06:55:20;98160.13;;;28.83;50.20
78309;BME280;67566;42.022;21.356;2023-07-20T06:57:46;98171.50;;;28.81;49.80
78309;BME280;67566;42.022;21.356;2023-07-20T07:00:12;98183.28;;;28.94;50.04
78309;BME280;67566;42.022;21.356;2023-07-20T07:02:38;98175.41;;;28.96;49.61
78309;BME280;67566;42.022;21.356;2023-07-20T07:05:04;98169.38;;;28.89;49.22
78309;BME280;67566;42.022;21.356;2023-07-20T07:07:29;98158.94;;;28.96;49.82
78309;BME280;67566;42.022;21.356;2023-07-20T07:09:55;98163.69;;;29.09;49.64
78309;BME280;67566;42.022;21.356;2023-07-20T07:12:21;98155.75;;;29.27;49.43
78309;BME280;67566;42.022;21.356;2023-07-20T07:14:46;98141.56;;;29.54;48.71
78309;BME280;67566;42.022;21.356;2023-07-20T07:17:12;98140.56;;;29.74;48.68
78309;BME280;67566;42.022;21.356;2023-07-20T07:19:37;98138.84;;;29.80;47.71
78309;BME280;67566;42.022;21.356;2023-07-20T07:22:04;98145.53;;;29.92;47.57
78309;BME280;67566;42.022;21.356;2023-07-20T07:24:29;98156.16;;;30.03;47.06
78309;BME280;67566;42.022;21.356;2023-07-20T07:26:59;98162.94;;;30.11;46.75
78309;BME280;67566;42.022;21.356;2023-07-20T07:29:25;98158.91;;;30.03;46.13
78309;BME280;67566;42.022;21.356;2023-07-20T07:31:51;98162.03;;;30.14;46.63
78309;BME280;67566;42.022;21.356;2023-07-20T07:34:17;98168.91;;;30.31;46.46
78309;BME280;67566;42.022;21.356;2023-07-20T07:36:43;98181.13;;;30.30;46.12
78309;BME280;67566;42.022;21.356;2023-07-20T07:39:08;98177.84;;;30.36;45.48
78309;BME280;67566;42.022;21.356;2023-07-20T07:41:35;98176.44;;;30.18;44.81
78309;BME280;67566;42.022;21.356;2023-07-20T07:44:00;98165.91;;;30.04;45.14
78309;BME280;67566;42.022;21.356;2023-07-20T07:46:26;98178.44;;;30.05;43.64
78309;BME280;67566;42.022;21.356;2023-07-20T07:48:51;98155.47;;;30.11;43.46
78309;BME280;67566;42.022;21.356;2023-07-20T07:51:17;98147.38;;;30.30;43.54
78309;BME280;67566;42.022;21.356;2023-07-20T07:53:43;98150.06;;;30.56;43.36
78309;BME280;67566;42.022;21.356;2023-07-20T07:56:09;98151.41;;;30.73;43.22
78309;BME280;67566;42.022;21.356;2023-07-20T07:58:34;98148.47;;;30.67;42.08
78309;BME280;67566;42.022;21.356;2023-07-20T08:01:00;98136.00;;;30.54;42.89
78309;BME280;67566;42.022;21.356;2023-07-20T08:03:26;98145.22;;;30.60;42.56
78309;BME280;67566;42.022;21.356;2023-07-20T08:05:54;98147.69;;;30.45;43.17
78309;BME280;67566;42.022;21.356;2023-07-20T08:08:25;98138.31;;;30.55;42.92
78309;BME280;67566;42.022;21.356;2023-07-20T08:10:53;98135.22;;;30.75;43.24
78309;BME280;67566;42.022;21.356;2023-07-20T08:13:19;98139.88;;;30.87;42.93
78309;BME280;67566;42.022;21.356;2023-07-20T08:15:49;98133.47;;;31.13;42.57
78309;BME280;67566;42.022;21.356;2023-07-20T08:18:15;98126.25;;;31.37;41.74
78309;BME280;67566;42.022;21.356;2023-07-20T08:20:44;98120.88;;;31.34;41.54
78309;BME280;67566;42.022;21.356;2023-07-20T08:23:09;98124.81;;;31.55;42.04
78309;BME280;67566;42.022;21.356;2023-07-20T08:25:38;98121.44;;;31.51;41.15
78309;BME280;67566;42.022;21.356;2023-07-20T08:28:07;98113.78;;;31.55;40.71
78309;BME280;67566;42.022;21.356;2023-07-20T08:30:47;98107.84;;;31.56;41.01
78309;BME280;67566;42.022;21.356;2023-07-20T08:33:16;98109.75;;;31.47;41.20
78309;BME280;67566;42.022;21.356;2023-07-20T08:35:44;98104.13;;;31.50;41.67
78309;BME280;67566;42.022;21.356;2023-07-20T08:38:10;98103.91;;;31.76;41.49
78309;BME280;67566;42.022;21.356;2023-07-20T08:40:44;98095.34;;;31.92;39.79
78309;BME280;67566;42.022;21.356;2023-07-20T08:43:11;98102.59;;;32.17;40.91
78309;BME280;67566;42.022;21.356;2023-07-20T08:45:40;98099.97;;;32.42;40.53
78309;BME280;67566;42.022;21.356;2023-07-20T08:48:07;98095.53;;;32.63;40.59
78309;BME280;67566;42.022;21.356;2023-07-20T08:50:34;98101.28;;;32.83;40.35
78309;BME280;67566;42.022;21.356;2023-07-20T08:53:01;98102.44;;;33.01;40.53
78309;BME280;67566;42.022;21.356;2023-07-20T08:55:27;98094.63;;;33.08;39.44
78309;BME280;67566;42.022;21.356;2023-07-20T08:57:57;98092.63;;;33.09;39.18
78309;BME280;67566;42.022;21.356;2023-07-20T09:00:24;98088.53;;;32.95;38.79
78309;BME280;67566;42.022;21.356;2023-07-20T09:02:52;98100.59;;;33.16;39.36
78309;BME280;67566;42.022;21.356;2023-07-20T09:05:19;98101.19;;;33.20;39.33
78309;BME280;67566;42.022;21.356;2023-07-20T09:07:44;98098.72;;;33.13;38.92
78309;BME280;67566;42.022;21.356;2023-07-20T09:10:10;98095.16;;;33.31;38.93
78309;BME280;67566;42.022;21.356;2023-07-20T09:12:38;98098.63;;;33.41;38.58
78309;BME280;67566;42.022;21.356;2023-07-20T09:15:05;98092.56;;;33.61;38.86
78309;BME280;67566;42.022;21.356;2023-07-20T09:17:31;98093.75;;;33.69;38.55
78309;BME280;67566;42.022;21.356;2023-07-20T09:20:09;98094.34;;;33.73;38.09
78309;BME280;67566;42.022;21.356;2023-07-20T09:22:38;98085.41;;;33.78;37.66
78309;BME280;67566;42.022;21.356;2023-07-20T09:25:18;98081.53;;;33.85;37.36
78309;BME280;67566;42.022;21.356;2023-07-20T09:27:48;98078.16;;;34.05;37.71
78309;BME280;67566;42.022;21.356;2023-07-20T09:30:15;98073.78;;;34.13;38.71
78309;BME280;67566;42.022;21.356;2023-07-20T09:32:50;98078.31;;;34.26;38.00
78309;BME280;67566;42.022;21.356;2023-07-20T09:35:22;98068.94;;;34.23;38.02
78309;BME280;67566;42.022;21.356;2023-07-20T09:37:58;98066.97;;;34.38;36.96
78309;BME280;67566;42.022;21.356;2023-07-20T09:40:25;98068.88;;;34.47;36.62
78309;BME280;67566;42.022;21.356;2023-07-20T09:42:55;98057.91;;;34.53;36.69
78309;BME280;67566;42.022;21.356;2023-07-20T09:45:33;98065.72;;;34.54;37.18
78309;BME280;67566;42.022;21.356;2023-07-20T09:48:08;98059.63;;;34.65;36.54
78309;BME280;67566;42.022;21.356;2023-07-20T09:50:38;98068.34;;;34.73;36.43
78309;BME280;67566;42.022;21.356;2023-07-20T09:53:06;98068.81;;;34.71;36.25
78309;BME280;67566;42.022;21.356;2023-07-20T09:55:32;98055.53;;;34.75;36.68
78309;BME280;67566;42.022;21.356;2023-07-20T09:58:00;98056.78;;;34.89;36.24
78309;BME280;67566;42.022;21.356;2023-07-20T10:00:25;98057.63;;;34.95;36.66
78309;BME280;67566;42.022;21.356;2023-07-20T10:02:52;98053.31;;;34.94;35.77
78309;BME280;67566;42.022;21.356;2023-07-20T10:05:19;98049.69;;;35.03;35.59
78309;BME280;67566;42.022;21.356;2023-07-20T10:07:49;98047.78;;;34.94;35.18
78309;BME280;67566;42.022;21.356;2023-07-20T10:10:16;98048.56;;;34.95;35.00
78309;BME280;67566;42.022;21.356;2023-07-20T10:12:43;98042.09;;;34.83;34.95
78309;BME280;67566;42.022;21.356;2023-07-20T10:15:26;98047.59;;;34.98;35.40
78309;BME280;67566;42.022;21.356;2023-07-20T10:18:07;98044.41;;;35.20;35.72
78309;BME280;67566;42.022;21.356;2023-07-20T10:20:36;98041.78;;;35.31;35.39
78309;BME280;67566;42.022;21.356;2023-07-20T10:23:02;98042.78;;;35.28;34.78
78309;BME280;67566;42.022;21.356;2023-07-20T10:25:28;98038.13;;;35.40;34.60
78309;BME280;67566;42.022;21.356;2023-07-20T10:27:54;98030.25;;;35.33;34.74
78309;BME280;67566;42.022;21.356;2023-07-20T10:30:20;98027.69;;;35.29;34.31
78309;BME280;67566;42.022;21.356;2023-07-20T10:32:46;98026.16;;;35.49;35.53
78309;BME280;67566;42.022;21.356;2023-07-20T10:35:14;98021.09;;;35.68;34.92
78309;BME280;67566;42.022;21.356;2023-07-20T10:37:54;98021.69;;;35.72;34.77
78309;BME280;67566;42.022;21.356;2023-07-20T10:40:27;98024.09;;;35.85;34.69
78309;BME280;67566;42.022;21.356;2023-07-20T10:43:01;98017.25;;;35.60;33.33
78309;BME280;67566;42.022;21.356;2023-07-20T10:45:40;98017.41;;;35.71;33.75
78309;BME280;67566;42.022;21.356;2023-07-20T10:48:13;98017.41;;;35.71;33.37
78309;BME280;67566;42.022;21.356;2023-07-20T10:50:40;98010.72;;;35.83;33.49
78309;BME280;67566;42.022;21.356;2023-07-20T10:53:14;98010.56;;;35.92;33.63
78309;BME280;67566;42.022;21.356;2023-07-20T10:55:40;98006.41;;;36.03;33.06
78309;BME280;67566;42.022;21.356;2023-07-20T10:58:15;98004.19;;;36.07;33.11
78309;BME280;67566;42.022;21.356;2023-07-20T11:01:13;97995.47;;;36.20;32.85
78309;BME280;67566;42.022;21.356;2023-07-20T11:03:39;97991.31;;;36.30;32.99
78309;BME280;67566;42.022;21.356;2023-07-20T11:06:29;97986.63;;;36.42;32.73
78309;BME280;67566;42.022;21.356;2023-07-20T11:09:12;97982.63;;;36.48;32.16
78309;BME280;67566;42.022;21.356;2023-07-20T11:11:42;97987.50;;;36.59;31.78
78309;BME280;67566;42.022;21.356;2023-07-20T11:14:10;97986.03;;;36.64;32.16
78309;BME280;67566;42.022;21.356;2023-07-20T11:16:45;97978.81;;;36.72;31.56
78309;BME280;67566;42.022;21.356;2023-07-20T11:19:24;97977.31;;;36.77;31.30
78309;BME280;67566;42.022;21.356;2023-07-20T11:21:56;97978.59;;;36.81;31.42
78309;BME280;67566;42.022;21.356;2023-07-20T11:24:23;97967.03;;;36.89;31.82
78309;BME280;67566;42.022;21.356;2023-07-20T11:26:53;97975.13;;;36.92;31.07
78309;BME280;67566;42.022;21.356;2023-07-20T11:29:20;97972.69;;;37.06;31.86
78309;BME280;67566;42.022;21.356;2023-07-20T11:31:46;97969.41;;;37.07;31.43
78309;BME280;67566;42.022;21.356;2023-07-20T11:34:15;97972.13;;;36.96;31.28
78309;BME280;67566;42.022;21.356;2023-07-20T11:36:42;97962.06;;;37.04;30.81
78309;BME280;67566;42.022;21.356;2023-07-20T11:39:09;97952.03;;;37.12;31.37
78309;BME280;67566;42.022;21.356;2023-07-20T11:41:35;97953.53;;;37.13;31.45
78309;BME280;67566;42.022;21.356;2023-07-20T11:44:00;97958.59;;;37.15;30.89
78309;BME280;67566;42.022;21.356;2023-07-20T11:46:28;97947.78;;;37.17;31.05
78309;BME280;67566;42.022;21.356;2023-07-20T11:49:00;97939.72;;;37.19;31.90
78309;BME280;67566;42.022;21.356;2023-07-20T11:51:29;97939.50;;;37.28;31.18
78309;BME280;67566;42.022;21.356;2023-07-20T11:53:56;97935.47;;;37.29;31.46
78309;BME280;67566;42.022;21.356;2023-07-20T11:56:25;97936.47;;;37.26;31.29
78309;BME280;67566;42.022;21.356;2023-07-20T11:58:55;97929.16;;;37.29;31.13
78309;BME280;67566;42.022;21.356;2023-07-20T12:01:23;97927.41;;;37.31;31.63
78309;BME280;67566;42.022;21.356;2023-07-20T12:03:48;97926.19;;;37.44;31.73
78309;BME280;67566;42.022;21.356;2023-07-20T12:06:15;97917.09;;;37.49;31.78
78309;BME280;67566;42.022;21.356;2023-07-20T12:08:44;97912.03;;;37.47;31.20
78309;BME280;67566;42.022;21.356;2023-07-20T12:11:09;97907.00;;;37.51;31.08
78309;BME280;67566;42.022;21.356;2023-07-20T12:13:57;97908.78;;;37.60;31.90
78309;BME280;67566;42.022;21.356;2023-07-20T12:16:27;97912.38;;;37.66;30.40
78309;BME280;67566;42.022;21.356;2023-07-20T12:19:10;97905.81;;;37.75;31.14
78309;BME280;67566;42.022;21.356;2023-07-20T12:21:38;97903.00;;;37.69;30.89
78309;BME280;67566;42.022;21.356;2023-07-20T12:24:05;97906.31;;;37.79;30.67
78309;BME280;67566;42.022;21.356;2023-07-20T12:26:32;97907.84;;;37.80;29.77
78309;BME280;67566;42.022;21.356;2023-07-20T12:28:59;97902.53;;;37.76;30.22
78309;BME280;67566;42.022;21.356;2023-07-20T12:31:26;97895.19;;;37.73;30.50
78309;BME280;67566;42.022;21.356;2023-07-20T12:33:52;97897.97;;;37.79;30.52
78309;BME280;67566;42.022;21.356;2023-07-20T12:36:18;97890.38;;;37.79;30.76
78309;BME280;67566;42.022;21.356;2023-07-20T12:38:44;97888.88;;;37.84;30.20
78309;BME280;67566;42.022;21.356;2023-07-20T12:41:11;97884.31;;;37.87;30.28
78309;BME280;67566;42.022;21.356;2023-07-20T12:43:43;97878.28;;;37.83;30.36
78309;BME280;67566;42.022;21.356;2023-07-20T12:46:10;97872.72;;;37.83;29.67
78309;BME280;67566;42.022;21.356;2023-07-20T12:48:37;97872.72;;;37.94;29.70
78309;BME280;67566;42.022;21.356;2023-07-20T12:51:03;97848.97;;;37.93;30.01
78309;BME280;67566;42.022;21.356;2023-07-20T12:53:30;97851.22;;;38.00;30.02
78309;BME280;67566;42.022;21.356;2023-07-20T12:55:56;97847.94;;;38.02;29.79
78309;BME280;67566;42.022;21.356;2023-07-20T12:58:21;97846.44;;;38.06;29.69
78309;BME280;67566;42.022;21.356;2023-07-20T13:00:47;97848.19;;;38.04;29.13
78309;BME280;67566;42.022;21.356;2023-07-20T13:03:12;97842.41;;;38.02;29.71
78309;BME280;67566;42.022;21.356;2023-07-20T13:05:38;97833.53;;;38.09;29.98